sensor_id;sensor_type;location;lat;lon;timestamp;temperature;humidity
35894;DHT22;21994;48.204;16.516;2022-10-13T00:01:19;10.60;99.90
35894;DHT22;21994;48.204;16.516;2022-10-13T00:03:46;10.60;99.90
35894;DHT22;21994;48.204;16.516;2022-10-13T00:06:15;10.60;99.90
35894;DHT22;21994;48.204;16.516;2022-10-13T00:08:43;10.70;99.90
35894;DHT22;21994;48.204;16.516;2022-10-13T00:11:18;10.60;99.90
35894;DHT22;21994;48.204;16.516;2022-10-13T00:13:46;10.70;99.90
35894;DHT22;21994;48.204;16.516;2022-10-13T00:16:15;10.70;99.90
35894;DHT22;21994;48.204;16.516;2022-10-13T00:18:43;10.70;99.90
35894;DHT22;21994;48.204;16.516;2022-10-13T00:21:15;10.60;99.90
35894;DHT22;21994;48.204;16.516;2022-10-13T00:23:47;10.60;99.90
35894;DHT22;21994;48.204;16.516;2022-10-13T00:26:15;10.60;99.90
35894;DHT22;21994;48.204;16.516;2022-10-13T00:28:41;10.70;99.90
35894;DHT22;21994;48.204;16.516;2022-10-13T00:31:22;10.60;99.90
35894;DHT22;21994;48.204;16.516;2022-10-13T00:33:50;10.60;99.90
35894;DHT22;21994;48.204;16.516;2022-10-13T00:36:18;10.60;99.90
35894;DHT22;21994;48.204;16.516;2022-10-13T00:38:44;10.70;99.90
35894;DHT22;21994;48.204;16.516;2022-10-13T00:41:10;10.70;99.90
35894;DHT22;21994;48.204;16.516;2022-10-13T00:44:03;10.80;99.90
35894;DHT22;21994;48.204;16.516;2022-10-13T00:46:36;10.80;99.90
35894;DHT22;21994;48.204;16.516;2022-10-13T00:49:09;10.80;99.90
35894;DHT22;21994;48.204;16.516;2022-10-13T00:51:42;10.80;99.90
35894;DHT22;21994;48.204;16.516;2022-10-13T00:54:13;10.90;99.90
35894;DHT22;21994;48.204;16.516;2022-10-13T00:56:41;10.80;99.90
35894;DHT22;21994;48.204;16.516;2022-10-13T00:59:12;10.90;99.90
35894;DHT22;21994;48.204;16.516;2022-10-13T01:01:47;10.80;99.90
35894;DHT22;21994;48.204;16.516;2022-10-13T01:04:14;10.80;99.90
35894;DHT22;21994;48.204;16.516;2022-10-13T01:06:41;10.90;99.90
35894;DHT22;21994;48.204;16.516;2022-10-13T01:09:07;10.90;99.90
35894;DHT22;21994;48.204;16.516;2022-10-13T01:11:57;10.90;99.90
35894;DHT22;21994;48.204;16.516;2022-10-13T01:15:15;10.80;99.90
35894;DHT22;21994;48.204;16.516;2022-10-13T01:21:03;10.80;99.90
35894;DHT22;21994;48.204;16.516;2022-10-13T01:32:38;10.80;99.90
35894;DHT22;21994;48.204;16.516;2022-10-13T01:36:03;10.80;99.90
35894;DHT22;21994;48.204;16.516;2022-10-13T01:41:13;10.50;99.90
35894;DHT22;21994;48.204;16.516;2022-10-13T01:44:05;10.40;99.90
35894;DHT22;21994;48.204;16.516;2022-10-13T01:46:36;10.30;99.90
35894;DHT22;21994;48.204;16.516;2022-10-13T01:49:11;10.30;99.90
35894;DHT22;21994;48.204;16.516;2022-10-13T01:51:40;10.20;99.90
35894;DHT22;21994;48.204;16.516;2022-10-13T01:54:07;10.10;99.90
35894;DHT22;21994;48.204;16.516;2022-10-13T01:56:32;10.00;99.90
35894;DHT22;21994;48.204;16.516;2022-10-13T01:59:07;9.90;99.90
35894;DHT22;21994;48.204;16.516;2022-10-13T02:01:58;9.80;99.90
35894;DHT22;21994;48.204;16.516;2022-10-13T02:08:08;9.70;99.90
35894;DHT22;21994;48.204;16.516;2022-10-13T02:10:50;9.50;99.90
35894;DHT22;21994;48.204;16.516;2022-10-13T02:13:22;9.50;99.90
35894;DHT22;21994;48.204;16.516;2022-10-13T02:15:53;9.50;99.90
35894;DHT22;21994;48.204;16.516;2022-10-13T02:18:28;9.30;99.90
35894;DHT22;21994;48.204;16.516;2022-10-13T02:20:56;9.30;99.90
35894;DHT22;21994;48.204;16.516;2022-10-13T02:23:23;9.20;99.90
35894;DHT22;21994;48.204;16.516;2022-10-13T02:25:49;9.20;99.90
35894;DHT22;21994;48.204;16.516;2022-10-13T02:28:15;9.20;99.90
35894;DHT22;21994;48.204;16.516;2022-10-13T02:30:43;9.10;99.90
35894;DHT22;21994;48.204;16.516;2022-10-13T02:33:10;9.10;99.90
35894;DHT22;21994;48.204;16.516;2022-10-13T02:35:37;9.10;99.90
35894;DHT22;21994;48.204;16.516;2022-10-13T02:38:03;9.00;99.90
35894;DHT22;21994;48.204;16.516;2022-10-13T02:40:30;9.00;99.90
35894;DHT22;21994;48.204;16.516;2022-10-13T02:42:56;9.00;99.90
35894;DHT22;21994;48.204;16.516;2022-10-13T02:45:22;9.00;99.90
35894;DHT22;21994;48.204;16.516;2022-10-13T02:47:48;9.00;99.90
35894;DHT22;21994;48.204;16.516;2022-10-13T02:50:14;9.00;99.90
35894;DHT22;21994;48.204;16.516;2022-10-13T02:52:40;9.00;99.90
35894;DHT22;21994;48.204;16.516;2022-10-13T02:55:06;9.00;99.90
35894;DHT22;21994;48.204;16.516;2022-10-13T02:57:32;9.00;99.90
35894;DHT22;21994;48.204;16.516;2022-10-13T02:59:58;9.00;99.90
35894;DHT22;21994;48.204;16.516;2022-10-13T03:02:26;9.00;99.90
35894;DHT22;21994;48.204;16.516;2022-10-13T03:04:52;9.00;99.90
35894;DHT22;21994;48.204;16.516;2022-10-13T03:07:18;9.00;99.90
35894;DHT22;21994;48.204;16.516;2022-10-13T03:09:44;9.10;99.90
35894;DHT22;21994;48.204;16.516;2022-10-13T03:12:10;9.10;99.90
35894;DHT22;21994;48.204;16.516;2022-10-13T03:14:36;9.10;99.90
35894;DHT22;21994;48.204;16.516;2022-10-13T03:17:02;9.10;99.90
35894;DHT22;21994;48.204;16.516;2022-10-13T03:19:28;9.30;99.90
35894;DHT22;21994;48.204;16.516;2022-10-13T03:21:54;9.40;99.90
35894;DHT22;21994;48.204;16.516;2022-10-13T03:24:20;9.40;99.90
35894;DHT22;21994;48.204;16.516;2022-10-13T03:26:45;9.50;99.90
35894;DHT22;21994;48.204;16.516;2022-10-13T03:29:16;9.50;99.90
35894;DHT22;21994;48.204;16.516;2022-10-13T03:31:43;9.50;99.90
35894;DHT22;21994;48.204;16.516;2022-10-13T03:34:10;9.60;99.90
35894;DHT22;21994;48.204;16.516;2022-10-13T03:36:36;9.60;99.90
35894;DHT22;21994;48.204;16.516;2022-10-13T03:39:02;9.60;99.90
35894;DHT22;21994;48.204;16.516;2022-10-13T03:41:28;9.70;99.90
35894;DHT22;21994;48.204;16.516;2022-10-13T03:43:54;9.70;99.90
35894;DHT22;21994;48.204;16.516;2022-10-13T03:46:21;9.80;99.90
35894;DHT22;21994;48.204;16.516;2022-10-13T03:48:49;9.90;99.90
35894;DHT22;21994;48.204;16.516;2022-10-13T03:51:17;9.80;99.90
35894;DHT22;21994;48.204;16.516;2022-10-13T03:53:45;10.00;99.90
35894;DHT22;21994;48.204;16.516;2022-10-13T03:56:17;10.00;99.90
35894;DHT22;21994;48.204;16.516;2022-10-13T03:58:44;10.00;99.90
35894;DHT22;21994;48.204;16.516;2022-10-13T04:01:12;10.00;99.90
35894;DHT22;21994;48.204;16.516;2022-10-13T04:03:38;10.00;99.90
35894;DHT22;21994;48.204;16.516;2022-10-13T04:06:05;9.90;99.90
35894;DHT22;21994;48.204;16.516;2022-10-13T04:08:32;9.90;99.90
35894;DHT22;21994;48.204;16.516;2022-10-13T04:11:00;10.10;99.90
35894;DHT22;21994;48.204;16.516;2022-10-13T04:13:27;10.10;99.90
35894;DHT22;21994;48.204;16.516;2022-10-13T04:15:52;10.10;99.90
35894;DHT22;21994;48.204;16.516;2022-10-13T04:18:18;10.20;99.90
35894;DHT22;21994;48.204;16.516;2022-10-13T04:20:44;10.20;99.90
35894;DHT22;21994;48.204;16.516;2022-10-13T04:23:10;10.20;99.90
35894;DHT22;21994;48.204;16.516;2022-10-13T04:25:37;10.20;99.90
35894;DHT22;21994;48.204;16.516;2022-10-13T04:28:05;10.20;99.90
35894;DHT22;21994;48.204;16.516;2022-10-13T04:30:33;10.30;99.90
35894;DHT22;21994;48.204;16.516;2022-10-13T04:32:59;10.30;99.90
35894;DHT22;21994;48.204;16.516;2022-10-13T04:35:25;10.30;99.90
35894;DHT22;21994;48.204;16.516;2022-10-13T04:37:51;10.40;99.90
35894;DHT22;21994;48.204;16.516;2022-10-13T04:40:17;10.40;99.90
35894;DHT22;21994;48.204;16.516;2022-10-13T04:42:43;10.50;99.90
35894;DHT22;21994;48.204;16.516;2022-10-13T04:45:09;10.40;99.90
35894;DHT22;21994;48.204;16.516;2022-10-13T04:47:35;10.40;99.90
35894;DHT22;21994;48.204;16.516;2022-10-13T04:50:02;10.50;99.90
35894;DHT22;21994;48.204;16.516;2022-10-13T04:52:29;10.50;99.90
35894;DHT22;21994;48.204;16.516;2022-10-13T04:54:54;10.60;99.90
35894;DHT22;21994;48.204;16.516;2022-10-13T04:57:20;10.60;99.90
35894;DHT22;21994;48.204;16.516;2022-10-13T04:59:46;10.60;99.90
35894;DHT22;21994;48.204;16.516;2022-10-13T05:02:12;10.70;99.90
35894;DHT22;21994;48.204;16.516;2022-10-13T05:04:38;10.70;99.90
35894;DHT22;21994;48.204;16.516;2022-10-13T05:07:03;10.70;99.90
35894;DHT22;21994;48.204;16.516;2022-10-13T05:09:29;10.80;99.90
35894;DHT22;21994;48.204;16.516;2022-10-13T05:11:55;10.80;99.90
35894;DHT22;21994;48.204;16.516;2022-10-13T05:14:21;10.80;99.90
35894;DHT22;21994;48.204;16.516;2022-10-13T05:16:47;10.80;99.90
35894;DHT22;21994;48.204;16.516;2022-10-13T05:19:14;11.00;99.90
35894;DHT22;21994;48.204;16.516;2022-10-13T05:21:40;11.00;99.90
35894;DHT22;21994;48.204;16.516;2022-10-13T05:24:06;10.90;99.90
35894;DHT22;21994;48.204;16.516;2022-10-13T05:26:37;11.00;99.90
35894;DHT22;21994;48.204;16.516;2022-10-13T05:29:04;11.00;99.90
35894;DHT22;21994;48.204;16.516;2022-10-13T05:31:31;11.00;99.90
35894;DHT22;21994;48.204;16.516;2022-10-13T05:33:59;11.00;99.90
35894;DHT22;21994;48.204;16.516;2022-10-13T05:36:34;11.00;99.90
35894;DHT22;21994;48.204;16.516;2022-10-13T05:39:02;11.10;99.90
35894;DHT22;21994;48.204;16.516;2022-10-13T05:41:30;11.20;99.90
35894;DHT22;21994;48.204;16.516;2022-10-13T05:44:02;11.20;99.90
35894;DHT22;21994;48.204;16.516;2022-10-13T05:46:30;11.30;99.90
35894;DHT22;21994;48.204;16.516;2022-10-13T05:48:56;11.30;99.90
35894;DHT22;21994;48.204;16.516;2022-10-13T05:51:35;11.30;99.90
35894;DHT22;21994;48.204;16.516;2022-10-13T05:56:49;11.50;99.90
35894;DHT22;21994;48.204;16.516;2022-10-13T05:59:22;11.50;99.90
35894;DHT22;21994;48.204;16.516;2022-10-13T06:01:49;11.60;99.90
35894;DHT22;21994;48.204;16.516;2022-10-13T06:04:19;11.70;99.90
35894;DHT22;21994;48.204;16.516;2022-10-13T06:06:46;11.70;99.90
35894;DHT22;21994;48.204;16.516;2022-10-13T06:09:13;11.70;99.90
35894;DHT22;21994;48.204;16.516;2022-10-13T06:11:39;11.70;99.90
35894;DHT22;21994;48.204;16.516;2022-10-13T06:14:05;11.80;99.90
35894;DHT22;21994;48.204;16.516;2022-10-13T06:16:31;11.90;99.90
35894;DHT22;21994;48.204;16.516;2022-10-13T06:18:59;11.90;99.90
35894;DHT22;21994;48.204;16.516;2022-10-13T06:21:25;11.80;99.90
35894;DHT22;21994;48.204;16.516;2022-10-13T06:23:50;11.80;99.90
35894;DHT22;21994;48.204;16.516;2022-10-13T06:26:16;11.90;99.90
35894;DHT22;21994;48.204;16.516;2022-10-13T06:28:42;11.80;99.90
35894;DHT22;21994;48.204;16.516;2022-10-13T06:31:08;11.80;99.90
35894;DHT22;21994;48.204;16.516;2022-10-13T06:33:34;11.80;99.90
35894;DHT22;21994;48.204;16.516;2022-10-13T06:36:02;11.80;99.90
35894;DHT22;21994;48.204;16.516;2022-10-13T06:38:29;11.80;99.90
35894;DHT22;21994;48.204;16.516;2022-10-13T06:41:00;11.90;99.90
35894;DHT22;21994;48.204;16.516;2022-10-13T06:43:27;12.00;99.90
35894;DHT22;21994;48.204;16.516;2022-10-13T06:45:52;12.00;99.90
35894;DHT22;21994;48.204;16.516;2022-10-13T06:48:22;11.90;99.90
35894;DHT22;21994;48.204;16.516;2022-10-13T06:50:48;12.00;99.90
35894;DHT22;21994;48.204;16.516;2022-10-13T06:53:14;12.10;99.90
35894;DHT22;21994;48.204;16.516;2022-10-13T06:55:40;12.10;99.90
35894;DHT22;21994;48.204;16.516;2022-10-13T06:58:08;12.20;99.90
35894;DHT22;21994;48.204;16.516;2022-10-13T07:00:35;12.40;99.90
35894;DHT22;21994;48.204;16.516;2022-10-13T07:03:02;12.30;99.90
35894;DHT22;21994;48.204;16.516;2022-10-13T07:05:28;12.40;99.90
35894;DHT22;21994;48.204;16.516;2022-10-13T07:07:54;12.50;99.90
35894;DHT22;21994;48.204;16.516;2022-10-13T07:10:20;12.50;99.90
35894;DHT22;21994;48.204;16.516;2022-10-13T07:12:46;12.50;99.90
35894;DHT22;21994;48.204;16.516;2022-10-13T07:15:12;12.60;99.90
35894;DHT22;21994;48.204;16.516;2022-10-13T07:17:38;12.60;99.90
35894;DHT22;21994;48.204;16.516;2022-10-13T07:20:04;12.60;99.90
35894;DHT22;21994;48.204;16.516;2022-10-13T07:22:31;12.70;99.90
35894;DHT22;21994;48.204;16.516;2022-10-13T07:24:57;12.80;99.90
35894;DHT22;21994;48.204;16.516;2022-10-13T07:27:23;12.80;99.90
35894;DHT22;21994;48.204;16.516;2022-10-13T07:29:49;12.80;99.90
35894;DHT22;21994;48.204;16.516;2022-10-13T07:32:15;12.70;99.90
35894;DHT22;21994;48.204;16.516;2022-10-13T07:34:41;12.70;99.90
35894;DHT22;21994;48.204;16.516;2022-10-13T07:37:07;12.60;99.90
35894;DHT22;21994;48.204;16.516;2022-10-13T07:39:33;12.60;99.90
35894;DHT22;21994;48.204;16.516;2022-10-13T07:41:59;12.60;99.90
35894;DHT22;21994;48.204;16.516;2022-10-13T07:44:25;12.80;99.90
35894;DHT22;21994;48.204;16.516;2022-10-13T07:46:51;12.90;99.90
35894;DHT22;21994;48.204;16.516;2022-10-13T07:49:17;12.90;99.90
35894;DHT22;21994;48.204;16.516;2022-10-13T07:51:43;12.90;99.90
35894;DHT22;21994;48.204;16.516;2022-10-13T07:54:09;12.80;99.90
35894;DHT22;21994;48.204;16.516;2022-10-13T07:56:36;12.90;99.90
35894;DHT22;21994;48.204;16.516;2022-10-13T07:59:03;12.90;99.90
35894;DHT22;21994;48.204;16.516;2022-10-13T08:01:29;12.90;99.90
35894;DHT22;21994;48.204;16.516;2022-10-13T08:03:55;12.70;99.90
35894;DHT22;21994;48.204;16.516;2022-10-13T08:06:21;12.60;99.90
35894;DHT22;21994;48.204;16.516;2022-10-13T08:08:47;12.60;99.90
35894;DHT22;21994;48.204;16.516;2022-10-13T08:11:14;12.60;99.90
35894;DHT22;21994;48.204;16.516;2022-10-13T08:13:41;12.70;99.90
35894;DHT22;21994;48.204;16.516;2022-10-13T08:16:08;12.70;99.90
35894;DHT22;21994;48.204;16.516;2022-10-13T08:18:34;12.70;99.90
35894;DHT22;21994;48.204;16.516;2022-10-13T08:21:01;12.70;99.90
35894;DHT22;21994;48.204;16.516;2022-10-13T08:23:28;12.70;99.90
35894;DHT22;21994;48.204;16.516;2022-10-13T08:25:54;12.90;99.90
35894;DHT22;21994;48.204;16.516;2022-10-13T08:28:23;12.90;99.90
35894;DHT22;21994;48.204;16.516;2022-10-13T08:30:53;12.90;99.90
35894;DHT22;21994;48.204;16.516;2022-10-13T08:33:23;12.80;99.90
35894;DHT22;21994;48.204;16.516;2022-10-13T08:35:49;12.60;99.90
35894;DHT22;21994;48.204;16.516;2022-10-13T08:38:15;12.60;99.90
35894;DHT22;21994;48.204;16.516;2022-10-13T08:40:49;12.40;99.90
35894;DHT22;21994;48.204;16.516;2022-10-13T08:43:19;12.30;99.90
35894;DHT22;21994;48.204;16.516;2022-10-13T08:45:48;12.50;99.90
35894;DHT22;21994;48.204;16.516;2022-10-13T08:48:42;12.50;99.90
35894;DHT22;21994;48.204;16.516;2022-10-13T08:51:11;12.80;99.90
35894;DHT22;21994;48.204;16.516;2022-10-13T08:53:41;12.80;99.90
35894;DHT22;21994;48.204;16.516;2022-10-13T08:56:20;12.80;99.90
35894;DHT22;21994;48.204;16.516;2022-10-13T08:58:50;12.80;99.90
35894;DHT22;21994;48.204;16.516;2022-10-13T09:01:36;12.90;99.90
35894;DHT22;21994;48.204;16.516;2022-10-13T09:04:23;13.10;99.90
35894;DHT22;21994;48.204;16.516;2022-10-13T09:09:37;13.30;99.90
35894;DHT22;21994;48.204;16.516;2022-10-13T09:12:03;13.30;99.90
35894;DHT22;21994;48.204;16.516;2022-10-13T09:14:38;13.30;99.90
35894;DHT22;21994;48.204;16.516;2022-10-13T09:17:25;13.30;99.90
35894;DHT22;21994;48.204;16.516;2022-10-13T09:20:14;13.30;99.90
35894;DHT22;21994;48.204;16.516;2022-10-13T09:23:04;13.40;99.90
35894;DHT22;21994;48.204;16.516;2022-10-13T09:25:48;13.50;99.90
35894;DHT22;21994;48.204;16.516;2022-10-13T09:28:22;13.50;99.90
35894;DHT22;21994;48.204;16.516;2022-10-13T09:34:00;13.70;99.90
35894;DHT22;21994;48.204;16.516;2022-10-13T09:36:28;13.60;99.90
35894;DHT22;21994;48.204;16.516;2022-10-13T09:39:15;13.70;99.90
35894;DHT22;21994;48.204;16.516;2022-10-13T09:41:42;13.60;99.90
35894;DHT22;21994;48.204;16.516;2022-10-13T09:44:15;13.50;99.90
35894;DHT22;21994;48.204;16.516;2022-10-13T09:46:54;13.50;99.90
35894;DHT22;21994;48.204;16.516;2022-10-13T09:49:43;13.80;99.90
35894;DHT22;21994;48.204;16.516;2022-10-13T09:52:14;13.80;99.90
35894;DHT22;21994;48.204;16.516;2022-10-13T09:54:48;13.80;99.90
35894;DHT22;21994;48.204;16.516;2022-10-13T09:57:34;13.80;99.90
35894;DHT22;21994;48.204;16.516;2022-10-13T10:00:18;13.90;99.90
35894;DHT22;21994;48.204;16.516;2022-10-13T10:03:15;14.00;99.90
35894;DHT22;21994;48.204;16.516;2022-10-13T10:05:51;14.00;99.90
35894;DHT22;21994;48.204;16.516;2022-10-13T10:08:30;14.00;99.90
35894;DHT22;21994;48.204;16.516;2022-10-13T10:11:12;14.10;99.90
35894;DHT22;21994;48.204;16.516;2022-10-13T10:13:44;14.00;99.90
35894;DHT22;21994;48.204;16.516;2022-10-13T10:18:52;13.80;99.90
35894;DHT22;21994;48.204;16.516;2022-10-13T10:21:54;13.90;99.90
35894;DHT22;21994;48.204;16.516;2022-10-13T10:24:42;13.80;99.90
35894;DHT22;21994;48.204;16.516;2022-10-13T10:27:17;13.80;99.90
35894;DHT22;21994;48.204;16.516;2022-10-13T10:30:15;13.80;99.90
35894;DHT22;21994;48.204;16.516;2022-10-13T10:41:44;14.10;99.90
35894;DHT22;21994;48.204;16.516;2022-10-13T10:44:31;14.10;99.90
35894;DHT22;21994;48.204;16.516;2022-10-13T10:47:13;14.00;99.90
35894;DHT22;21994;48.204;16.516;2022-10-13T10:50:03;14.00;99.90
35894;DHT22;21994;48.204;16.516;2022-10-13T10:57:55;14.20;99.90
35894;DHT22;21994;48.204;16.516;2022-10-13T11:07:13;14.40;99.90
35894;DHT22;21994;48.204;16.516;2022-10-13T11:12:22;14.40;99.90
35894;DHT22;21994;48.204;16.516;2022-10-13T11:15:08;14.40;99.90
35894;DHT22;21994;48.204;16.516;2022-10-13T11:17:38;14.40;99.90
35894;DHT22;21994;48.204;16.516;2022-10-13T11:25:45;14.60;99.90
35894;DHT22;21994;48.204;16.516;2022-10-13T11:44:54;15.10;99.90
35894;DHT22;21994;48.204;16.516;2022-10-13T11:52:57;15.10;99.90
35894;DHT22;21994;48.204;16.516;2022-10-13T11:58:24;15.40;99.90
35894;DHT22;21994;48.204;16.516;2022-10-13T12:00:58;15.40;99.90
35894;DHT22;21994;48.204;16.516;2022-10-13T12:03:33;15.50;99.90
35894;DHT22;21994;48.204;16.516;2022-10-13T12:06:31;15.50;99.90
35894;DHT22;21994;48.204;16.516;2022-10-13T12:09:13;15.50;99.90
35894;DHT22;21994;48.204;16.516;2022-10-13T12:11:41;15.60;99.90
35894;DHT22;21994;48.204;16.516;2022-10-13T12:14:20;15.50;99.90
35894;DHT22;21994;48.204;16.516;2022-10-13T12:16:59;15.50;99.90
35894;DHT22;21994;48.204;16.516;2022-10-13T12:19:30;15.60;99.90
35894;DHT22;21994;48.204;16.516;2022-10-13T12:22:00;15.60;99.90
35894;DHT22;21994;48.204;16.516;2022-10-13T12:24:28;15.60;99.90
35894;DHT22;21994;48.204;16.516;2022-10-13T12:26:55;15.50;99.90
35894;DHT22;21994;48.204;16.516;2022-10-13T12:29:26;15.50;99.90
35894;DHT22;21994;48.204;16.516;2022-10-13T12:31:54;15.50;99.90
35894;DHT22;21994;48.204;16.516;2022-10-13T12:34:29;15.60;99.90
35894;DHT22;21994;48.204;16.516;2022-10-13T12:37:24;15.50;99.90
35894;DHT22;21994;48.204;16.516;2022-10-13T12:39:52;15.50;99.90
35894;DHT22;21994;48.204;16.516;2022-10-13T12:42:18;15.40;99.90
35894;DHT22;21994;48.204;16.516;2022-10-13T12:44:49;15.50;99.90
35894;DHT22;21994;48.204;16.516;2022-10-13T12:55:33;15.70;99.90
35894;DHT22;21994;48.204;16.516;2022-10-13T12:58:00;15.70;99.90
35894;DHT22;21994;48.204;16.516;2022-10-13T13:00:28;15.70;99.90
35894;DHT22;21994;48.204;16.516;2022-10-13T13:03:03;15.70;99.90
35894;DHT22;21994;48.204;16.516;2022-10-13T13:05:32;15.60;99.90
35894;DHT22;21994;48.204;16.516;2022-10-13T13:08:00;15.60;99.90
35894;DHT22;21994;48.204;16.516;2022-10-13T13:10:27;15.80;99.90
35894;DHT22;21994;48.204;16.516;2022-10-13T13:12:54;15.90;99.90
35894;DHT22;21994;48.204;16.516;2022-10-13T13:17:52;15.90;99.90
35894;DHT22;21994;48.204;16.516;2022-10-13T13:20:26;15.80;99.90
35894;DHT22;21994;48.204;16.516;2022-10-13T13:22:54;15.80;99.90
35894;DHT22;21994;48.204;16.516;2022-10-13T13:25:20;15.80;99.90
35894;DHT22;21994;48.204;16.516;2022-10-13T13:27:46;15.70;99.90
35894;DHT22;21994;48.204;16.516;2022-10-13T13:30:15;15.60;99.90
35894;DHT22;21994;48.204;16.516;2022-10-13T13:32:42;15.60;99.90
35894;DHT22;21994;48.204;16.516;2022-10-13T13:35:08;15.60;99.90
35894;DHT22;21994;48.204;16.516;2022-10-13T13:37:45;15.50;99.90
35894;DHT22;21994;48.204;16.516;2022-10-13T13:40:19;15.40;99.90
35894;DHT22;21994;48.204;16.516;2022-10-13T13:42:46;15.40;99.90
35894;DHT22;21994;48.204;16.516;2022-10-13T13:45:13;15.40;99.90
35894;DHT22;21994;48.204;16.516;2022-10-13T13:47:40;15.40;99.90
35894;DHT22;21994;48.204;16.516;2022-10-13T13:50:23;15.60;99.90
35894;DHT22;21994;48.204;16.516;2022-10-13T13:52:50;15.60;99.90
35894;DHT22;21994;48.204;16.516;2022-10-13T13:55:16;15.60;99.90
35894;DHT22;21994;48.204;16.516;2022-10-13T13:57:43;15.70;99.90
35894;DHT22;21994;48.204;16.516;2022-10-13T14:00:14;15.90;99.90
35894;DHT22;21994;48.204;16.516;2022-10-13T14:02:41;15.90;99.90
35894;DHT22;21994;48.204;16.516;2022-10-13T14:05:08;16.00;99.90
35894;DHT22;21994;48.204;16.516;2022-10-13T14:07:35;15.90;99.90
35894;DHT22;21994;48.204;16.516;2022-10-13T14:10:01;16.00;99.90
35894;DHT22;21994;48.204;16.516;2022-10-13T14:12:30;15.90;99.90
35894;DHT22;21994;48.204;16.516;2022-10-13T14:14:56;15.80;99.90
35894;DHT22;21994;48.204;16.516;2022-10-13T14:17:23;15.70;99.90
35894;DHT22;21994;48.204;16.516;2022-10-13T14:19:50;15.90;99.90
35894;DHT22;21994;48.204;16.516;2022-10-13T14:22:16;16.20;99.90
35894;DHT22;21994;48.204;16.516;2022-10-13T14:24:42;16.30;99.90
35894;DHT22;21994;48.204;16.516;2022-10-13T14:27:08;16.40;99.90
35894;DHT22;21994;48.204;16.516;2022-10-13T14:29:34;16.40;99.90
35894;DHT22;21994;48.204;16.516;2022-10-13T14:32:01;16.30;99.90
35894;DHT22;21994;48.204;16.516;2022-10-13T14:34:27;16.00;99.90
35894;DHT22;21994;48.204;16.516;2022-10-13T14:36:53;16.00;99.90
35894;DHT22;21994;48.204;16.516;2022-10-13T14:39:19;15.80;99.90
35894;DHT22;21994;48.204;16.516;2022-10-13T14:41:45;15.90;99.90
35894;DHT22;21994;48.204;16.516;2022-10-13T14:44:12;15.80;99.90
35894;DHT22;21994;48.204;16.516;2022-10-13T14:46:41;15.70;99.90
35894;DHT22;21994;48.204;16.516;2022-10-13T14:49:09;15.60;99.90
35894;DHT22;21994;48.204;16.516;2022-10-13T14:51:35;15.50;99.90
35894;DHT22;21994;48.204;16.516;2022-10-13T14:54:01;15.50;99.90
35894;DHT22;21994;48.204;16.516;2022-10-13T14:56:28;15.50;99.90
35894;DHT22;21994;48.204;16.516;2022-10-13T14:59:03;15.20;99.90
35894;DHT22;21994;48.204;16.516;2022-10-13T15:01:30;15.00;99.90
35894;DHT22;21994;48.204;16.516;2022-10-13T15:03:58;15.00;99.90
35894;DHT22;21994;48.204;16.516;2022-10-13T15:06:25;15.00;99.90
35894;DHT22;21994;48.204;16.516;2022-10-13T15:08:51;14.90;99.90
35894;DHT22;21994;48.204;16.516;2022-10-13T15:11:19;15.00;99.90
35894;DHT22;21994;48.204;16.516;2022-10-13T15:13:45;15.10;99.90
35894;DHT22;21994;48.204;16.516;2022-10-13T15:16:17;15.00;99.90
35894;DHT22;21994;48.204;16.516;2022-10-13T15:18:51;15.10;99.90
35894;DHT22;21994;48.204;16.516;2022-10-13T15:21:16;15.00;99.90
35894;DHT22;21994;48.204;16.516;2022-10-13T15:23:43;14.90;99.90
35894;DHT22;21994;48.204;16.516;2022-10-13T15:26:11;14.90;99.90
35894;DHT22;21994;48.204;16.516;2022-10-13T15:28:41;14.80;99.90
35894;DHT22;21994;48.204;16.516;2022-10-13T15:31:08;14.70;99.90
35894;DHT22;21994;48.204;16.516;2022-10-13T15:33:34;14.60;99.90
35894;DHT22;21994;48.204;16.516;2022-10-13T15:36:00;14.60;99.90
35894;DHT22;21994;48.204;16.516;2022-10-13T15:38:26;14.50;99.90
35894;DHT22;21994;48.204;16.516;2022-10-13T15:40:58;14.30;99.90
35894;DHT22;21994;48.204;16.516;2022-10-13T15:43:25;14.10;99.90
35894;DHT22;21994;48.204;16.516;2022-10-13T15:46:00;13.90;99.90
35894;DHT22;21994;48.204;16.516;2022-10-13T15:48:27;13.90;99.90
35894;DHT22;21994;48.204;16.516;2022-10-13T15:50:53;13.80;99.90
35894;DHT22;21994;48.204;16.516;2022-10-13T15:53:19;13.70;99.90
35894;DHT22;21994;48.204;16.516;2022-10-13T15:55:46;13.60;99.90
35894;DHT22;21994;48.204;16.516;2022-10-13T15:58:12;13.50;99.90
35894;DHT22;21994;48.204;16.516;2022-10-13T16:00:39;13.40;99.90
35894;DHT22;21994;48.204;16.516;2022-10-13T16:03:06;13.20;99.90
35894;DHT22;21994;48.204;16.516;2022-10-13T16:05:32;13.10;99.90
35894;DHT22;21994;48.204;16.516;2022-10-13T16:07:58;12.90;99.90
35894;DHT22;21994;48.204;16.516;2022-10-13T16:10:24;12.70;99.90
35894;DHT22;21994;48.204;16.516;2022-10-13T16:12:50;12.70;99.90
35894;DHT22;21994;48.204;16.516;2022-10-13T16:15:16;12.60;99.90
35894;DHT22;21994;48.204;16.516;2022-10-13T16:17:42;12.50;99.90
35894;DHT22;21994;48.204;16.516;2022-10-13T16:20:11;12.30;99.90
35894;DHT22;21994;48.204;16.516;2022-10-13T16:22:37;12.20;99.90
35894;DHT22;21994;48.204;16.516;2022-10-13T16:25:03;12.10;99.90
35894;DHT22;21994;48.204;16.516;2022-10-13T16:27:29;12.00;99.90
35894;DHT22;21994;48.204;16.516;2022-10-13T16:29:54;11.80;99.90
35894;DHT22;21994;48.204;16.516;2022-10-13T16:32:20;11.70;99.90
35894;DHT22;21994;48.204;16.516;2022-10-13T16:34:46;11.60;99.90
35894;DHT22;21994;48.204;16.516;2022-10-13T16:37:12;11.50;99.90
35894;DHT22;21994;48.204;16.516;2022-10-13T16:39:38;11.40;99.90
35894;DHT22;21994;48.204;16.516;2022-10-13T16:42:04;11.30;99.90
35894;DHT22;21994;48.204;16.516;2022-10-13T16:44:30;11.20;99.90
35894;DHT22;21994;48.204;16.516;2022-10-13T16:46:56;11.10;99.90
35894;DHT22;21994;48.204;16.516;2022-10-13T16:49:23;11.10;99.90
35894;DHT22;21994;48.204;16.516;2022-10-13T16:51:48;11.00;99.90
35894;DHT22;21994;48.204;16.516;2022-10-13T16:54:14;10.90;99.90
35894;DHT22;21994;48.204;16.516;2022-10-13T16:56:40;10.80;99.90
35894;DHT22;21994;48.204;16.516;2022-10-13T16:59:06;10.80;99.90
35894;DHT22;21994;48.204;16.516;2022-10-13T17:01:33;10.70;99.90
35894;DHT22;21994;48.204;16.516;2022-10-13T17:04:01;10.70;99.90
35894;DHT22;21994;48.204;16.516;2022-10-13T17:06:28;10.60;99.90
35894;DHT22;21994;48.204;16.516;2022-10-13T17:08:56;10.60;99.90